Seabourn Quest — C6YZ5 — position and weather

sailwx.info

Track history (hours):
 
Tides and Currents Weather Stations Pressure Air Temp Water Temp Dewpoint Dewpoint Depression Visibility Wind Speed Wind Dir Waves Ship Positions

Seabourn Quest

Last reported at 2015-Apr-28 04:09 UTC. Time now 2015-Apr-28 10:15 UTC.
Position N 41°18' E 002°11'.

Length 197 m; draft 6.7 m.

Type: Passenger vessel. MMSI: 311038900.

Date/timePositionNaut miles runAvg speedWind from/ knotsBaromVisibWave heightAir tempDewpointWater temp
2015-Apr-28 04:09N 41°18' E 002°11'1211.4
2015-Apr-28 03:05N 41°06' E 002°12'2113.4
2015-Apr-28 01:33N 40°45' E 002°13'1313.3
2015-Apr-28 00:33N 40°32' E 002°17'1313.1
2015-Apr-27 23:33N 40°19' E 002°17'1313.4
2015-Apr-27 22:33N 40°06' E 002°13'1313.4
2015-Apr-27 21:33N 39°53' E 002°14'1313.4
2015-Apr-27 20:33N 39°39' E 002°14'8 8.2
2015-Apr-27 19:33N 39°31' E 002°18'7 7.4
2015-Apr-27 18:33N 39°26' E 002°25'7 6.5
2015-Apr-27 17:33N 39°25' E 002°33'8 7.6
2015-Apr-27 16:33N 39°31' E 002°38'2 2.2
2015-Apr-27 15:31N 39°33' E 002°38'0 0.0
2015-Apr-27 14:31N 39°33' E 002°38'0 0.0
2015-Apr-27 13:31N 39°33' E 002°38'0 0.0
2015-Apr-27 12:31N 39°33' E 002°38'0 0.0
2015-Apr-27 11:33N 39°33' E 002°38'0 0.0
2015-Apr-27 10:33N 39°33' E 002°38'0 0.0
2015-Apr-27 09:33N 39°33' E 002°38'0 0.0
2015-Apr-27 08:33N 39°33' E 002°38'0 0.0
2015-Apr-27 07:33N 39°33' E 002°38'0 0.0
2015-Apr-27 06:33N 39°33' E 002°38'0 0.2
2015-Apr-27 05:33N 39°33' E 002°38'7 6.5
2015-Apr-27 04:33N 39°27' E 002°36'1110.7
2015-Apr-27 03:33N 39°28' E 002°22'1211.8
2015-Apr-27 02:33N 39°38' E 002°14'1313.2
2015-Apr-27 01:33N 39°51' E 002°18'1313.0
2015-Apr-27 00:33N 40°03' E 002°23'1313.2
2015-Apr-26 23:33N 40°16' E 002°28'1313.2
2015-Apr-26 22:33N 40°28' E 002°33'1313.2
2015-Apr-26 21:33N 40°41' E 002°38'1313.2
2015-Apr-26 20:33N 40°54' E 002°44'1313.0
2015-Apr-26 19:33N 41°06' E 002°49'2713.3
2015-Apr-26 17:29N 41°32' E 002°60'1813.2
2015-Apr-26 16:05N 41°50' E 003°07'1 1.0
2015-Apr-26 15:09N 41°51' E 003°07'0 0.0
2015-Apr-26 14:12N 41°51' E 003°07'0 0.0
2015-Apr-26 11:11N 41°51' E 003°07'0 0.0
2015-Apr-26 09:20N 41°51' E 003°07'0 0.0
2015-Apr-26 08:21N 41°51' E 003°07'0 0.0
2015-Apr-26 07:08N 41°51' E 003°07'6 2.4
2015-Apr-26 04:30N 41°52' E 003°16'6111.2
2015-Apr-25 23:05N 42°26' E 004°23'9 9.3
2015-Apr-25 22:08N 42°31' E 004°33'5 9.1
2015-Apr-25 21:32N 42°34' E 004°39'13 9.2
2015-Apr-25 20:10N 42°41' E 004°53'6 9.5
2015-Apr-25 19:30N 42°45' E 005°01'12 9.5
2015-Apr-25 18:12N 42°52' E 005°14'28 9.0
2015-Apr-25 15:06N 43°08' E 005°46'0 0.2
2015-Apr-25 14:26N 43°08' E 005°46'5 0.5
2015-Apr-25 04:33N 43°03' E 005°45'1312.8
2015-Apr-25 03:32N 42°57' E 006°00'13713.7
2015-Apr-24 17:33N 44°00' E 008°47'1514.8
2015-Apr-24 16:33N 44°08' E 009°04'13 1.0
2015-Apr-24 04:05N 44°17' E 009°18'4 6.9
2015-Apr-24 03:33N 44°13' E 009°20'7 7.1
2015-Apr-24 02:33N 44°07' E 009°24'7 7.3
2015-Apr-24 01:33N 44°00' E 009°29'7 7.3
2015-Apr-24 00:33N 43°54' E 009°33'7 7.3
2015-Apr-23 23:33N 43°47' E 009°38'7 7.4
2015-Apr-23 22:33N 43°41' E 009°43'7 7.4
2015-Apr-23 21:33N 43°34' E 009°48'7 6.9
2015-Apr-23 20:33N 43°31' E 009°56'8 7.5
2015-Apr-23 19:33N 43°30' E 010°07'7 7.4
2015-Apr-23 18:34N 43°32' E 010°17'1 1.1
2015-Apr-23 17:33N 43°33' E 010°18'0 0.0
2015-Apr-23 16:32N 43°33' E 010°18'0 0.0
2015-Apr-23 15:32N 43°33' E 010°18'0 0.0
2015-Apr-23 14:32N 43°33' E 010°18'0 0.0
2015-Apr-23 13:32N 43°33' E 010°18'0 0.0
2015-Apr-23 12:32N 43°33' E 010°18'0 0.0
2015-Apr-23 11:32N 43°33' E 010°18'0 0.0
2015-Apr-23 10:29N 43°33' E 010°18'0 0.0
2015-Apr-23 09:33N 43°33' E 010°18'0 0.0
2015-Apr-23 08:33N 43°33' E 010°18'0 0.0
2015-Apr-23 07:32N 43°33' E 010°18'0 0.0
2015-Apr-23 06:32N 43°33' E 010°18'0 0.0
2015-Apr-23 05:32N 43°33' E 010°18'0 0.1
2015-Apr-23 04:33N 43°33' E 010°18'6 6.0
2015-Apr-23 03:33N 43°28' E 010°13'9 8.8
2015-Apr-23 02:33N 43°20' E 010°10'9 8.7
2015-Apr-23 01:33N 43°11' E 010°07'9 9.1
2015-Apr-23 00:33N 43°02' E 010°04'9 8.9
2015-Apr-22 23:33N 42°53' E 010°03'12 8.6
2015-Apr-22 22:08N 42°42' E 009°58'5 8.9
2015-Apr-22 21:33N 42°37' E 009°56'4515.0
2015-Apr-22 18:33N 41°53' E 009°42'1515.4
2015-Apr-22 17:34N 41°38' E 009°37'1514.6
2015-Apr-22 16:34N 41°25' E 009°28'53 2.9
2015-Apr-21 22:10N 41°45' E 010°33'8 9.2
2015-Apr-21 21:16N 41°48' E 010°43'7 9.2
2015-Apr-21 20:32N 41°51' E 010°51'9 9.0
2015-Apr-21 19:32N 41°54' E 011°03'9 9.2
2015-Apr-21 18:34N 41°57' E 011°14'10 0.6
2015-Apr-21 01:31N 42°07' E 011°11'1613.9
2015-Apr-21 00:23N 42°14' E 010°52'5213.6
2015-Apr-20 20:33N 43°00' E 010°20'1515.0
2015-Apr-20 19:33N 43°10' E 010°04'1514.8
2015-Apr-20 18:33N 43°20' E 009°49'1413.7
2015-Apr-20 17:33N 43°33' E 009°46'1514.9
2015-Apr-20 16:33N 43°48' E 009°49'1514.6
2015-Apr-20 15:33N 44°02' E 009°52'1 1.1
2015-Apr-20 14:31N 44°03' E 009°51'0 0.0
2015-Apr-20 13:33N 44°03' E 009°51'0 0.0
2015-Apr-20 12:31N 44°03' E 009°51'0 0.0
2015-Apr-20 11:31N 44°03' E 009°51'0 0.0
2015-Apr-20 10:28N 44°03' E 009°51'0 0.0
2015-Apr-20 09:31N 44°03' E 009°51'0 0.0
2015-Apr-20 08:31N 44°03' E 009°51'0 0.0
2015-Apr-20 07:31N 44°03' E 009°51'0 0.0
2015-Apr-20 06:28N 44°03' E 009°51'0 0.1
2015-Apr-20 05:33N 44°03' E 009°51'5 5.0
2015-Apr-20 04:33N 43°59' E 009°55'1212.2
2015-Apr-20 03:33N 43°57' E 009°38'1313.3
2015-Apr-20 02:33N 43°55' E 009°20'1211.9
2015-Apr-20 01:33N 43°53' E 009°04'8 8.4
2015-Apr-20 00:33N 43°52' E 008°52'8 8.4
2015-Apr-19 23:33N 43°50' E 008°41'53 2.8
2015-Apr-19 04:33N 43°39' E 007°30'  
Track history (hours):
 
Tides and Currents Weather Stations Pressure Air Temp Water Temp Dewpoint Dewpoint Depression Visibility Wind Speed Wind Dir Waves Ship Positions

Seabourn Quest

Last reported at 2015-Apr-28 04:09 UTC. Time now 2015-Apr-28 10:15 UTC.
Position N 41°18' E 002°11'.

Length 197 m; draft 6.7 m.

Type: Passenger vessel. MMSI: 311038900.

Date/timePositionNaut miles runAvg speedWind from/ knotsBaromVisibWave heightAir tempDewpointWater temp
2015-Apr-28 04:09N 41°18' E 002°11'1211.4
2015-Apr-28 03:05N 41°06' E 002°12'2113.4
2015-Apr-28 01:33N 40°45' E 002°13'1313.3
2015-Apr-28 00:33N 40°32' E 002°17'1313.1
2015-Apr-27 23:33N 40°19' E 002°17'1313.4
2015-Apr-27 22:33N 40°06' E 002°13'1313.4
2015-Apr-27 21:33N 39°53' E 002°14'1313.4
2015-Apr-27 20:33N 39°39' E 002°14'8 8.2
2015-Apr-27 19:33N 39°31' E 002°18'7 7.4
2015-Apr-27 18:33N 39°26' E 002°25'7 6.5
2015-Apr-27 17:33N 39°25' E 002°33'8 7.6
2015-Apr-27 16:33N 39°31' E 002°38'2 2.2
2015-Apr-27 15:31N 39°33' E 002°38'0 0.0
2015-Apr-27 14:31N 39°33' E 002°38'0 0.0
2015-Apr-27 13:31N 39°33' E 002°38'0 0.0
2015-Apr-27 12:31N 39°33' E 002°38'0 0.0
2015-Apr-27 11:33N 39°33' E 002°38'0 0.0
2015-Apr-27 10:33N 39°33' E 002°38'0 0.0
2015-Apr-27 09:33N 39°33' E 002°38'0 0.0
2015-Apr-27 08:33N 39°33' E 002°38'0 0.0
2015-Apr-27 07:33N 39°33' E 002°38'0 0.0
2015-Apr-27 06:33N 39°33' E 002°38'0 0.2
2015-Apr-27 05:33N 39°33' E 002°38'7 6.5
2015-Apr-27 04:33N 39°27' E 002°36'1110.7
2015-Apr-27 03:33N 39°28' E 002°22'1211.8
2015-Apr-27 02:33N 39°38' E 002°14'1313.2
2015-Apr-27 01:33N 39°51' E 002°18'1313.0
2015-Apr-27 00:33N 40°03' E 002°23'1313.2
2015-Apr-26 23:33N 40°16' E 002°28'1313.2
2015-Apr-26 22:33N 40°28' E 002°33'1313.2
2015-Apr-26 21:33N 40°41' E 002°38'1313.2
2015-Apr-26 20:33N 40°54' E 002°44'1313.0
2015-Apr-26 19:33N 41°06' E 002°49'2713.3
2015-Apr-26 17:29N 41°32' E 002°60'1813.2
2015-Apr-26 16:05N 41°50' E 003°07'1 1.0
2015-Apr-26 15:09N 41°51' E 003°07'0 0.0
2015-Apr-26 14:12N 41°51' E 003°07'0 0.0
2015-Apr-26 11:11N 41°51' E 003°07'0 0.0
2015-Apr-26 09:20N 41°51' E 003°07'0 0.0
2015-Apr-26 08:21N 41°51' E 003°07'0 0.0
2015-Apr-26 07:08N 41°51' E 003°07'6 2.4
2015-Apr-26 04:30N 41°52' E 003°16'6111.2
2015-Apr-25 23:05N 42°26' E 004°23'9 9.3
2015-Apr-25 22:08N 42°31' E 004°33'5 9.1
2015-Apr-25 21:32N 42°34' E 004°39'13 9.2
2015-Apr-25 20:10N 42°41' E 004°53'6 9.5
2015-Apr-25 19:30N 42°45' E 005°01'12 9.5
2015-Apr-25 18:12N 42°52' E 005°14'28 9.0
2015-Apr-25 15:06N 43°08' E 005°46'0 0.2
2015-Apr-25 14:26N 43°08' E 005°46'5 0.5
2015-Apr-25 04:33N 43°03' E 005°45'1312.8
2015-Apr-25 03:32N 42°57' E 006°00'13713.7
2015-Apr-24 17:33N 44°00' E 008°47'1514.8
2015-Apr-24 16:33N 44°08' E 009°04'13 1.0
2015-Apr-24 04:05N 44°17' E 009°18'4 6.9
2015-Apr-24 03:33N 44°13' E 009°20'7 7.1
2015-Apr-24 02:33N 44°07' E 009°24'7 7.3
2015-Apr-24 01:33N 44°00' E 009°29'7 7.3
2015-Apr-24 00:33N 43°54' E 009°33'7 7.3
2015-Apr-23 23:33N 43°47' E 009°38'7 7.4
2015-Apr-23 22:33N 43°41' E 009°43'7 7.4
2015-Apr-23 21:33N 43°34' E 009°48'7 6.9
2015-Apr-23 20:33N 43°31' E 009°56'8 7.5
2015-Apr-23 19:33N 43°30' E 010°07'7 7.4
2015-Apr-23 18:34N 43°32' E 010°17'1 1.1
2015-Apr-23 17:33N 43°33' E 010°18'0 0.0
2015-Apr-23 16:32N 43°33' E 010°18'0 0.0
2015-Apr-23 15:32N 43°33' E 010°18'0 0.0
2015-Apr-23 14:32N 43°33' E 010°18'0 0.0
2015-Apr-23 13:32N 43°33' E 010°18'0 0.0
2015-Apr-23 12:32N 43°33' E 010°18'0 0.0
2015-Apr-23 11:32N 43°33' E 010°18'0 0.0
2015-Apr-23 10:29N 43°33' E 010°18'0 0.0
2015-Apr-23 09:33N 43°33' E 010°18'0 0.0
2015-Apr-23 08:33N 43°33' E 010°18'0 0.0
2015-Apr-23 07:32N 43°33' E 010°18'0 0.0
2015-Apr-23 06:32N 43°33' E 010°18'0 0.0
2015-Apr-23 05:32N 43°33' E 010°18'0 0.1
2015-Apr-23 04:33N 43°33' E 010°18'6 6.0
2015-Apr-23 03:33N 43°28' E 010°13'9 8.8
2015-Apr-23 02:33N 43°20' E 010°10'9 8.7
2015-Apr-23 01:33N 43°11' E 010°07'9 9.1
2015-Apr-23 00:33N 43°02' E 010°04'9 8.9
2015-Apr-22 23:33N 42°53' E 010°03'12 8.6
2015-Apr-22 22:08N 42°42' E 009°58'5 8.9
2015-Apr-22 21:33N 42°37' E 009°56'4515.0
2015-Apr-22 18:33N 41°53' E 009°42'1515.4
2015-Apr-22 17:34N 41°38' E 009°37'1514.6
2015-Apr-22 16:34N 41°25' E 009°28'53 2.9
2015-Apr-21 22:10N 41°45' E 010°33'8 9.2
2015-Apr-21 21:16N 41°48' E 010°43'7 9.2
2015-Apr-21 20:32N 41°51' E 010°51'9 9.0
2015-Apr-21 19:32N 41°54' E 011°03'9 9.2
2015-Apr-21 18:34N 41°57' E 011°14'10 0.6
2015-Apr-21 01:31N 42°07' E 011°11'1613.9
2015-Apr-21 00:23N 42°14' E 010°52'5213.6
2015-Apr-20 20:33N 43°00' E 010°20'1515.0
2015-Apr-20 19:33N 43°10' E 010°04'1514.8
2015-Apr-20 18:33N 43°20' E 009°49'1413.7
2015-Apr-20 17:33N 43°33' E 009°46'1514.9
2015-Apr-20 16:33N 43°48' E 009°49'1514.6
2015-Apr-20 15:33N 44°02' E 009°52'1 1.1
2015-Apr-20 14:31N 44°03' E 009°51'0 0.0
2015-Apr-20 13:33N 44°03' E 009°51'0 0.0
2015-Apr-20 12:31N 44°03' E 009°51'0 0.0
2015-Apr-20 11:31N 44°03' E 009°51'0 0.0
2015-Apr-20 10:28N 44°03' E 009°51'0 0.0
2015-Apr-20 09:31N 44°03' E 009°51'0 0.0
2015-Apr-20 08:31N 44°03' E 009°51'0 0.0
2015-Apr-20 07:31N 44°03' E 009°51'0 0.0
2015-Apr-20 06:28N 44°03' E 009°51'0 0.1
2015-Apr-20 05:33N 44°03' E 009°51'5 5.0
2015-Apr-20 04:33N 43°59' E 009°55'1212.2
2015-Apr-20 03:33N 43°57' E 009°38'1313.3
2015-Apr-20 02:33N 43°55' E 009°20'1211.9
2015-Apr-20 01:33N 43°53' E 009°04'8 8.4
2015-Apr-20 00:33N 43°52' E 008°52'8 8.4
2015-Apr-19 23:33N 43°50' E 008°41'53 2.8
2015-Apr-19 04:33N 43°39' E 007°30'  

Dump ship's entire track history